Time;durP1;ratioP1;P1;durP2;ratioP2;P2;SDS_P1;SDS_P2;PMS_P1;PMS_P2;Temp;Humidity;BMP_temperature;BMP_pressure;BME280_temperature;BME280_humidity;BME280_pressure;Samples;Min_cycle;Max_cycle;Signal;HPM_P1;HPM_P2
2023/12/04 00:00:40;;;;;;;20.60;8.00;;;;;;;-4.10;91.41;101775.53;5087517;28;20119;-62
2023/12/04 00:05:34;;;;;;;24.58;8.45;;;;;;;-4.10;91.41;101775.53;5108529;27;20412;-61
2023/12/04 00:07:59;;;;;;;24.27;7.80;;;;;;;-4.10;91.11;101778.09;5108393;28;20380;-62
2023/12/04 00:10:25;;;;;;;24.45;8.13;;;;;;;-4.12;91.55;101775.34;5107716;28;20036;-62
2023/12/04 00:12:51;;;;;;;23.07;8.47;;;;;;;-4.14;91.40;101779.38;5107828;28;20043;-60
2023/12/04 00:15:19;;;;;;;23.35;8.32;;;;;;;-4.16;91.08;101778.31;5107825;28;20044;-60
2023/12/04 00:17:45;;;;;;;19.23;7.07;;;;;;;-4.20;91.71;101776.13;5107615;28;20138;-59
2023/12/04 00:20:10;;;;;;;23.02;8.60;;;;;;;-4.21;91.55;101773.38;5107063;28;20035;-61
2023/12/04 00:22:36;;;;;;;22.73;7.90;;;;;;;-4.21;91.51;101776.88;5094760;28;20043;-61
2023/12/04 00:25:03;;;;;;;25.15;8.73;;;;;;;-4.22;91.24;101774.09;5087202;28;20494;-60
2023/12/04 00:27:29;;;;;;;22.02;7.75;;;;;;;-4.22;90.76;101768.94;5092198;28;20051;-59
2023/12/04 00:29:54;;;;;;;22.83;7.37;;;;;;;-4.23;90.82;101780.91;5086694;28;20655;-60
2023/12/04 00:32:19;;;;;;;22.15;7.93;;;;;;;-4.24;91.09;101775.59;5087132;28;20400;-60
2023/12/04 00:34:45;;;;;;;22.13;7.03;;;;;;;-4.24;90.63;101770.44;5087005;28;20528;-60
2023/12/04 00:37:10;;;;;;;29.40;7.83;;;;;;;-4.24;90.65;101770.44;5086806;28;20122;-59
2023/12/04 00:39:35;;;;;;;22.37;8.03;;;;;;;-4.24;91.23;101776.50;5086481;28;20036;-60
2023/12/04 00:42:01;;;;;;;20.50;7.40;;;;;;;-4.22;91.25;101785.34;5086870;28;20135;-60
2023/12/04 00:44:26;;;;;;;26.55;8.57;;;;;;;-4.21;91.25;101786.25;5086834;28;20442;-60
2023/12/04 00:46:52;;;;;;;22.83;7.93;;;;;;;-4.17;90.86;101798.75;5087017;28;20040;-61
2023/12/04 00:49:17;;;;;;;22.07;7.37;;;;;;;-4.17;91.01;101793.59;5105229;28;20115;-61
2023/12/04 00:51:42;;;;;;;24.13;7.10;;;;;;;-4.17;90.71;101781.63;5107553;28;20036;-60
2023/12/04 00:54:08;;;;;;;26.37;8.37;;;;;;;-4.15;91.34;101782.72;5106751;28;20110;-61
2023/12/04 00:56:34;;;;;;;27.30;9.10;;;;;;;-4.16;91.05;101775.72;5106841;28;20376;-60
2023/12/04 00:58:59;;;;;;;21.77;8.47;;;;;;;-4.17;91.42;101772.97;5106458;28;20042;-61
2023/12/04 01:01:24;;;;;;;27.03;8.27;;;;;;;-4.11;91.35;101773.69;5106584;28;20027;-60
2023/12/04 01:03:50;;;;;;;24.45;7.63;;;;;;;-4.11;90.81;101778.84;5106616;28;20043;-61
2023/12/04 01:06:25;;;;;;;22.97;8.27;;;;;;;-4.13;91.44;101773.50;5105140;28;20202;-61
2023/12/04 01:08:50;;;;;;;23.20;8.93;;;;;;;-4.14;91.03;101769.06;5085852;28;20028;-62
2023/12/04 01:11:17;;;;;;;23.90;8.63;;;;;;;-4.16;91.05;101775.72;5086597;28;20039;-61
2023/12/04 01:13:42;;;;;;;24.30;9.38;;;;;;;-4.15;91.54;101767.25;5086742;28;20040;-61
2023/12/04 01:18:27;;;;;;;24.83;9.68;;;;;;;-4.13;91.47;101758.00;5066980;28;20419;-62
2023/12/04 01:20:53;;;;;;;26.57;8.43;;;;;;;-4.11;91.07;101758.19;5067903;28;20040;-61
2023/12/04 01:23:18;;;;;;;23.55;8.68;;;;;;;-4.09;91.08;101755.03;5067406;28;20540;-62
2023/12/04 01:25:44;;;;;;;18.23;7.77;;;;;;;-4.09;91.52;101747.28;5067395;28;20136;-61
2023/12/04 01:28:09;;;;;;;24.23;7.60;;;;;;;-4.04;91.33;101756.47;5081886;28;20043;-61
2023/12/04 01:30:35;;;;;;;27.87;8.17;;;;;;;-4.01;91.35;101749.09;5087161;28;20419;-61
2023/12/04 01:33:00;;;;;;;21.57;7.97;;;;;;;-3.98;91.12;101751.09;5087658;28;20036;-61
2023/12/04 01:35:26;;;;;;;22.77;7.43;;;;;;;-3.97;91.41;101743.53;5087384;28;20032;-61
2023/12/04 01:37:51;;;;;;;27.77;8.60;;;;;;;-3.93;91.11;101748.28;5087288;28;20037;-61
2023/12/04 01:40:17;;;;;;;26.23;8.25;;;;;;;-3.91;91.00;101743.31;5086830;28;20423;-61
2023/12/04 01:42:42;;;;;;;25.27;9.30;;;;;;;-3.87;91.32;101742.00;5087395;28;20044;-62
2023/12/04 01:45:08;;;;;;;23.03;8.67;;;;;;;-3.84;91.44;101745.81;5087168;28;20491;-62
2023/12/04 01:47:34;;;;;;;22.85;9.10;;;;;;;-3.83;90.71;101741.59;5087242;28;20036;-61
2023/12/04 01:50:00;;;;;;;20.10;7.45;;;;;;;-3.82;91.34;101749.50;5086678;28;20523;-61
2023/12/04 01:52:25;;;;;;;26.08;9.07;;;;;;;-3.82;91.45;101746.94;5087069;28;20039;-62
2023/12/04 01:54:51;;;;;;;27.00;7.77;;;;;;;-3.79;90.96;101751.50;5087202;28;20059;-61
2023/12/04 01:57:16;;;;;;;27.43;8.63;;;;;;;-3.78;91.52;101746.53;5087061;28;20541;-61
2023/12/04 01:59:42;;;;;;;26.10;9.30;;;;;;;-3.74;90.90;101742.63;5086488;28;20044;-61
2023/12/04 02:02:09;;;;;;;24.85;7.82;;;;;;;-3.71;91.18;101742.97;5087067;28;20162;-61
2023/12/04 02:04:35;;;;;;;23.85;7.55;;;;;;;-3.70;91.15;101734.50;5086719;28;20085;-61
2023/12/04 02:07:00;;;;;;;29.33;9.37;;;;;;;-3.66;91.28;101736.66;5086638;28;20404;-62
2023/12/04 02:09:26;;;;;;;25.67;8.63;;;;;;;-3.64;90.87;101730.00;5086320;28;20541;-60
2023/12/04 02:11:53;;;;;;;24.45;8.57;;;;;;;-3.63;90.93;101726.69;5087158;28;20036;-61
2023/12/04 02:14:18;;;;;;;28.08;9.18;;;;;;;-3.62;90.91;101728.50;5086898;28;20123;-61
2023/12/04 02:16:45;;;;;;;23.67;9.10;;;;;;;-3.60;90.74;101725.34;5086690;28;20036;-61
2023/12/04 02:19:13;;;;;;;28.42;8.48;;;;;;;-3.57;91.22;101728.28;5086174;28;20043;-61
2023/12/04 02:21:38;;;;;;;25.52;8.82;;;;;;;-3.56;91.04;101716.31;5086584;28;20043;-60
2023/12/04 02:24:04;;;;;;;22.77;8.43;;;;;;;-3.53;90.89;101720.13;5086471;28;20127;-60
2023/12/04 02:29:04;;;;;;;23.35;8.70;;;;;;;-3.55;91.27;101710.34;5088096;27;20720;-61
2023/12/04 02:31:31;;;;;;;25.10;8.57;;;;;;;-3.55;91.48;101713.88;5087935;28;20040;-61
2023/12/04 02:33:58;;;;;;;22.27;8.85;;;;;;;-3.55;91.39;101710.34;5087878;28;20430;-62
2023/12/04 02:36:25;;;;;;;25.27;9.05;;;;;;;-3.54;91.31;101707.03;5087562;28;20039;-61
2023/12/04 02:38:52;;;;;;;20.43;7.10;;;;;;;-3.56;90.98;101703.38;5087426;28;20028;-61
2023/12/04 02:41:17;;;;;;;22.55;8.35;;;;;;;-3.64;90.92;101699.94;5087856;28;20471;-61
2023/12/04 02:46:08;;;;;;;27.05;9.18;;;;;;;-3.71;91.42;101696.50;5067547;28;21056;-61
2023/12/04 02:48:33;;;;;;;23.07;7.93;;;;;;;-3.74;91.50;101693.56;5067185;28;20033;-61
2023/12/04 02:53:17;;;;;;;29.98;10.68;;;;;;;-3.76;91.56;101689.94;5007862;28;20424;-62
2023/12/04 02:55:42;;;;;;;26.97;8.53;;;;;;;-3.76;91.70;101682.19;5008282;28;20120;-61
2023/12/04 02:58:07;;;;;;;22.77;7.82;;;;;;;-3.74;91.50;101675.50;5008027;28;20038;-62
2023/12/04 03:00:33;;;;;;;27.00;8.10;;;;;;;-3.75;91.32;101679.75;5007333;28;20113;-61
2023/12/04 03:02:58;;;;;;;22.20;8.67;;;;;;;-3.76;90.92;101671.84;5007964;28;20201;-60
2023/12/04 03:05:23;;;;;;;27.53;8.47;;;;;;;-3.78;91.71;101669.09;4995977;28;20994;-61
2023/12/04 03:07:49;;;;;;;23.47;7.93;;;;;;;-3.78;91.88;101663.00;5011119;28;20129;-62
2023/12/04 03:10:14;;;;;;;24.35;7.80;;;;;;;-3.78;91.94;101655.25;5005384;28;20546;-61
2023/12/04 03:12:40;;;;;;;25.23;9.90;;;;;;;-3.75;91.79;101656.50;5008107;28;20038;-61
2023/12/04 03:15:05;;;;;;;24.57;7.63;;;;;;;-3.76;91.71;101652.13;5003418;28;20113;-62
2023/12/04 03:17:31;;;;;;;24.08;8.00;;;;;;;-3.75;91.38;101658.22;4986654;28;20510;-60
2023/12/04 03:19:56;;;;;;;29.67;9.53;;;;;;;-3.76;91.18;101658.94;4985955;28;20034;-62
2023/12/04 03:22:21;;;;;;;20.50;8.03;;;;;;;-3.78;91.36;101656.19;4987521;28;20133;-60
2023/12/04 03:24:47;;;;;;;24.13;8.57;;;;;;;-3.77;91.63;101662.28;4987806;28;20045;-60
2023/12/04 03:27:12;;;;;;;24.10;8.00;;;;;;;-3.78;91.42;101657.84;5000609;28;20128;-62
2023/12/04 03:29:38;;;;;;;28.73;8.40;;;;;;;-3.76;91.26;101656.38;5026437;28;20038;-60
2023/12/04 03:32:03;;;;;;;24.57;8.33;;;;;;;-3.77;91.77;101647.69;5026957;28;20132;-62
2023/12/04 03:34:29;;;;;;;25.37;8.03;;;;;;;-3.73;91.46;101641.22;5026935;28;20057;-61
2023/12/04 03:36:54;;;;;;;24.70;8.77;;;;;;;-3.69;91.19;101640.78;4994076;28;20026;-63
2023/12/04 03:39:20;;;;;;;27.23;8.40;;;;;;;-3.65;91.61;101638.72;4987250;28;20129;-61
2023/12/04 03:41:46;;;;;;;22.27;8.10;;;;;;;-3.60;90.97;101634.09;4987319;28;20031;-59
2023/12/04 03:44:12;;;;;;;27.60;8.90;;;;;;;-3.59;91.56;101634.25;4987388;28;20039;-62
2023/12/04 03:46:37;;;;;;;22.77;8.23;;;;;;;-3.59;91.32;101623.00;4987628;28;20042;-62
2023/12/04 03:51:28;;;;;;;29.35;10.73;;;;;;;-3.56;91.18;101628.50;5059140;28;20378;-62
2023/12/04 03:53:53;;;;;;;28.00;9.87;;;;;;;-3.57;90.95;101626.66;5087635;28;20040;-62
2023/12/04 03:56:19;;;;;;;22.95;7.72;;;;;;;-3.58;91.40;101628.34;5081608;28;20112;-60
2023/12/04 03:58:44;;;;;;;24.50;7.93;;;;;;;-3.61;90.85;101628.00;5067136;28;20083;-61
2023/12/04 04:01:09;;;;;;;24.67;8.97;;;;;;;-3.64;91.42;101621.56;5067881;28;20614;-61
2023/12/04 04:03:35;;;;;;;23.27;8.33;;;;;;;-3.67;91.25;101623.81;5067536;28;20116;-61
2023/12/04 04:06:00;;;;;;;27.83;9.60;;;;;;;-3.69;91.30;101630.47;5082661;28;20036;-62
2023/12/04 04:08:26;;;;;;;26.00;8.23;;;;;;;-3.70;91.21;101628.66;5086523;28;20036;-60
2023/12/04 04:10:51;;;;;;;29.33;9.93;;;;;;;-3.74;91.46;101629.03;5086830;28;20139;-60
2023/12/04 04:13:16;;;;;;;24.23;8.17;;;;;;;-3.74;91.47;101629.97;5086357;28;20180;-62
2023/12/04 04:15:42;;;;;;;24.33;9.03;;;;;;;-3.77;91.40;101634.81;5087225;28;20103;-61
2023/12/04 04:18:07;;;;;;;25.23;9.60;;;;;;;-3.79;91.87;101633.69;5086901;28;20040;-61
2023/12/04 04:20:32;;;;;;;26.02;9.07;;;;;;;-3.82;91.79;101623.03;5086518;28;20511;-62
2023/12/04 04:22:58;;;;;;;24.30;9.33;;;;;;;-3.80;91.61;101638.72;5071842;28;20120;-62
2023/12/04 04:25:24;;;;;;;26.57;10.00;;;;;;;-3.83;91.30;101623.78;5067053;28;20496;-61
2023/12/04 04:27:49;;;;;;;24.07;8.50;;;;;;;-3.83;91.27;101628.03;5078453;28;20044;-61
2023/12/04 04:30:14;;;;;;;26.50;8.70;;;;;;;-3.83;91.38;101630.59;5086459;28;20682;-61
2023/12/04 04:32:40;;;;;;;29.87;9.27;;;;;;;-3.81;91.58;101626.53;5087210;28;20032;-62
2023/12/04 04:35:05;;;;;;;25.20;9.97;;;;;;;-3.78;91.37;101621.72;5086568;28;20514;-62
2023/12/04 04:37:31;;;;;;;27.07;9.73;;;;;;;-3.75;91.11;101625.53;5086607;28;20040;-62
2023/12/04 04:39:56;;;;;;;22.07;8.43;;;;;;;-3.73;91.13;101610.22;5086314;28;20398;-62
2023/12/04 04:42:22;;;;;;;27.67;9.73;;;;;;;-3.67;90.28;101617.00;5086475;28;20097;-62
2023/12/04 04:44:47;;;;;;;25.92;9.63;;;;;;;-3.61;90.30;101611.59;5086548;28;20032;-62
2023/12/04 04:47:13;;;;;;;24.80;8.70;;;;;;;-3.55;90.51;101608.00;5086553;28;20077;-62
2023/12/04 04:49:38;;;;;;;29.43;9.70;;;;;;;-3.51;89.95;101610.19;5085765;28;20671;-62
2023/12/04 04:52:04;;;;;;;22.00;8.53;;;;;;;-3.44;90.18;101608.25;5086366;28;20326;-62
2023/12/04 04:54:32;;;;;;;24.95;8.77;;;;;;;-3.44;90.29;101611.75;5086232;28;20376;-62
2023/12/04 04:56:57;;;;;;;27.27;9.73;;;;;;;-3.39;90.15;101610.59;5031108;28;20049;-63
2023/12/04 04:59:23;;;;;;;32.63;9.73;;;;;;;-3.33;89.69;101600.03;5006167;28;20038;-61
2023/12/04 05:01:48;;;;;;;23.93;9.47;;;;;;;-3.30;89.70;101595.16;4999405;28;20031;-62
2023/12/04 05:04:13;;;;;;;25.40;9.20;;;;;;;-3.22;89.49;101594.34;4993770;28;20124;-62
2023/12/04 05:06:39;;;;;;;27.47;9.53;;;;;;;-3.20;89.30;101596.34;4993488;28;20553;-64
2023/12/04 05:09:04;;;;;;;27.93;9.30;;;;;;;-3.16;89.83;101589.88;4993200;28;20041;-61
2023/12/04 05:11:30;;;;;;;27.43;9.87;;;;;;;-3.17;89.27;101590.59;4993792;28;20289;-61
2023/12/04 05:13:55;;;;;;;28.47;9.67;;;;;;;-3.19;89.50;101590.44;4992572;28;20034;-61
2023/12/04 05:16:20;;;;;;;26.47;9.03;;;;;;;-3.20;89.79;101583.41;4993745;28;20053;-61
2023/12/04 05:18:46;;;;;;;29.37;9.67;;;;;;;-3.19;89.73;101586.91;4993108;28;20034;-62
2023/12/04 05:21:12;;;;;;;24.17;9.83;;;;;;;-3.20;89.59;101572.16;4993129;28;20030;-61
2023/12/04 05:23:38;;;;;;;25.20;9.50;;;;;;;-3.26;89.68;101574.13;4993509;28;20289;-61
2023/12/04 05:26:04;;;;;;;27.05;9.63;;;;;;;-3.31;90.20;101573.63;4993328;28;20551;-61
2023/12/04 05:28:29;;;;;;;22.23;7.95;;;;;;;-3.35;90.27;101573.09;4988257;28;20856;-61
2023/12/04 05:30:55;;;;;;;23.83;7.93;;;;;;;-3.40;90.06;101564.84;4973776;28;20046;-61
2023/12/04 05:33:20;;;;;;;24.53;9.17;;;;;;;-3.43;90.37;101566.19;4987849;28;20125;-62
2023/12/04 05:35:48;;;;;;;22.60;7.83;;;;;;;-3.47;90.53;101564.97;4991904;28;20050;-61
2023/12/04 05:38:13;;;;;;;23.02;8.38;;;;;;;-3.47;90.78;101559.78;4992466;28;20047;-60
2023/12/04 05:40:38;;;;;;;22.60;7.97;;;;;;;-3.46;90.63;101552.97;4983468;28;20038;-60
2023/12/04 05:43:04;;;;;;;22.95;7.63;;;;;;;-3.43;90.13;101556.78;4992504;28;20683;-60
2023/12/04 05:45:29;;;;;;;22.53;7.93;;;;;;;-3.42;90.37;101553.47;4992130;28;20034;-61
2023/12/04 05:47:54;;;;;;;25.33;8.33;;;;;;;-3.44;90.32;101552.38;4992626;28;20113;-62
2023/12/04 05:50:20;;;;;;;23.37;8.40;;;;;;;-3.47;90.34;101552.03;4991399;28;20141;-61
2023/12/04 05:52:45;;;;;;;25.90;7.57;;;;;;;-3.44;90.30;101552.38;4992590;28;20541;-61
2023/12/04 05:55:11;;;;;;;24.43;8.90;;;;;;;-3.47;89.89;101557.22;4992675;28;20072;-62
2023/12/04 05:57:38;;;;;;;22.53;8.00;;;;;;;-3.50;90.29;101560.34;4992312;28;20273;-62
2023/12/04 06:00:06;;;;;;;24.77;8.70;;;;;;;-3.47;90.25;101558.88;4992016;28;20034;-61
2023/12/04 06:02:32;;;;;;;22.80;8.37;;;;;;;-3.46;90.17;101555.53;4992357;28;20034;-62
2023/12/04 06:04:57;;;;;;;23.30;9.32;;;;;;;-3.44;89.86;101556.59;4991564;28;20089;-61
2023/12/04 06:07:23;;;;;;;22.77;7.40;;;;;;;-3.40;89.71;101553.63;4992466;28;20122;-62
2023/12/04 06:09:48;;;;;;;25.43;8.07;;;;;;;-3.36;90.28;101553.22;4991287;28;20050;-62
2023/12/04 06:12:13;;;;;;;21.90;7.73;;;;;;;-3.34;89.87;101557.78;4992068;28;20117;-61
2023/12/04 06:14:39;;;;;;;22.13;7.40;;;;;;;-3.32;89.89;101550.19;4991235;28;20105;-61
2023/12/04 06:17:06;;;;;;;22.85;8.32;;;;;;;-3.28;89.44;101558.44;4992098;28;20546;-61
2023/12/04 06:19:31;;;;;;;22.30;7.83;;;;;;;-3.26;89.29;101550.88;4991461;28;20058;-61
2023/12/04 06:21:57;;;;;;;24.60;7.63;;;;;;;-3.27;89.60;101554.19;4992071;28;20076;-61
2023/12/04 06:24:24;;;;;;;22.80;7.77;;;;;;;-3.26;89.69;101551.78;4991286;28;20121;-62
2023/12/04 06:26:50;;;;;;;23.67;6.90;;;;;;;-3.24;89.27;101539.00;4991062;28;20130;-62
2023/12/04 06:29:16;;;;;;;23.60;8.45;;;;;;;-3.25;89.15;101543.25;4991510;28;20042;-62
2023/12/04 06:31:41;;;;;;;18.57;7.27;;;;;;;-3.21;89.04;101545.44;4992000;28;20049;-62
2023/12/04 06:34:07;;;;;;;22.08;6.97;;;;;;;-3.19;88.75;101541.34;4992110;28;20053;-61
2023/12/04 06:36:37;;;;;;;21.17;7.57;;;;;;;-3.19;88.85;101543.94;4992098;28;20045;-60
2023/12/04 06:39:08;;;;;;;26.90;7.90;;;;;;;-3.19;89.05;101536.19;4991607;28;20068;-61
2023/12/04 06:41:34;;;;;;;26.95;8.27;;;;;;;-3.18;89.42;101527.69;4991851;28;20479;-59
2023/12/04 06:43:59;;;;;;;27.47;8.73;;;;;;;-3.13;89.06;101521.34;4991932;28;20046;-60
2023/12/04 06:46:28;;;;;;;26.43;9.83;;;;;;;-3.09;88.88;101525.16;4991553;28;20042;-61
2023/12/04 06:48:57;;;;;;;21.20;7.93;;;;;;;-3.03;89.13;101520.66;4990939;28;20038;-61
2023/12/04 06:51:22;;;;;;;25.17;8.98;;;;;;;-2.98;89.27;101518.53;4990136;28;20042;-60
2023/12/04 06:53:47;;;;;;;21.43;8.03;;;;;;;-2.92;89.37;101517.53;4990851;28;20038;-60
2023/12/04 06:56:15;;;;;;;22.90;8.10;;;;;;;-2.87;89.19;101515.44;4991679;28;20057;-61
2023/12/04 06:58:40;;;;;;;21.58;7.85;;;;;;;-2.83;88.85;101515.91;4991118;28;20023;-61
2023/12/04 07:01:05;;;;;;;24.13;8.53;;;;;;;-2.82;88.77;101519.41;4991083;28;20398;-60
2023/12/04 07:03:31;;;;;;;21.90;8.45;;;;;;;-2.81;88.72;101514.38;4985999;28;20031;-62
2023/12/04 07:05:56;;;;;;;21.10;7.97;;;;;;;-2.76;89.10;101508.03;4980101;28;20124;-62
2023/12/04 07:08:21;;;;;;;23.90;8.87;;;;;;;-2.73;88.71;101499.69;4989869;28;20137;-63
2023/12/04 07:10:47;;;;;;;25.13;9.17;;;;;;;-2.67;88.41;101502.94;4989388;28;20109;-63
2023/12/04 07:13:12;;;;;;;24.97;10.07;;;;;;;-2.64;88.78;101503.22;4982110;28;20114;-63
2023/12/04 07:15:38;;;;;;;25.77;10.65;;;;;;;-2.58;88.52;101498.72;4971747;28;20061;-67
2023/12/04 07:18:03;;;;;;;22.80;8.63;;;;;;;-2.55;88.09;101495.50;4972221;28;20507;-61
2023/12/04 07:20:29;;;;;;;24.10;8.73;;;;;;;-2.52;88.29;101501.94;4971416;28;20034;-62
2023/12/04 07:22:54;;;;;;;22.40;9.18;;;;;;;-2.47;88.47;101495.56;4972437;28;20039;-63
2023/12/04 07:25:20;;;;;;;22.03;8.30;;;;;;;-2.41;88.26;101493.59;4972257;28;20130;-61
2023/12/04 07:27:46;;;;;;;21.00;7.87;;;;;;;-2.37;88.01;101498.31;4971966;28;20034;-60
2023/12/04 07:30:12;;;;;;;23.98;8.82;;;;;;;-2.29;87.96;101499.13;4970909;28;20046;-62
2023/12/04 07:32:37;;;;;;;22.48;8.43;;;;;;;-2.21;88.04;101496.56;4971518;28;20070;-61
2023/12/04 07:35:04;;;;;;;21.37;7.63;;;;;;;-2.19;87.86;101501.91;4971556;28;20117;-61
2023/12/04 07:37:31;;;;;;;25.67;9.57;;;;;;;-2.15;87.56;101492.78;4971433;28;20042;-62
2023/12/04 07:39:56;;;;;;;26.63;9.68;;;;;;;-2.07;88.05;101491.91;4973158;28;20031;-59
2023/12/04 07:42:22;;;;;;;21.70;8.40;;;;;;;-2.02;87.97;101488.13;4991003;28;20517;-62
2023/12/04 07:44:47;;;;;;;24.97;9.50;;;;;;;-1.97;87.62;101492.06;4990661;28;20049;-61
2023/12/04 07:47:13;;;;;;;21.17;7.18;;;;;;;-1.91;87.60;101484.91;4990778;28;20034;-61
2023/12/04 07:49:38;;;;;;;23.70;8.17;;;;;;;-1.81;87.21;101498.03;4990032;28;20446;-62
2023/12/04 07:52:04;;;;;;;24.27;9.13;;;;;;;-1.79;87.05;101494.88;4990928;28;20573;-60
2023/12/04 07:54:29;;;;;;;22.40;8.93;;;;;;;-1.73;87.04;101491.97;4990853;28;20030;-60
2023/12/04 07:56:54;;;;;;;22.03;8.50;;;;;;;-1.69;86.95;101493.19;4989398;28;20493;-61
2023/12/04 07:59:20;;;;;;;21.90;8.33;;;;;;;-1.70;86.75;101484.50;4989935;28;20095;-61
2023/12/04 08:01:45;;;;;;;20.07;8.03;;;;;;;-1.63;86.93;101488.63;4991067;28;20149;-61
2023/12/04 08:04:11;;;;;;;24.37;9.37;;;;;;;-1.58;86.54;101483.13;4990777;28;20130;-61
2023/12/04 08:06:36;;;;;;;23.23;9.17;;;;;;;-1.52;86.64;101483.75;4990846;28;20277;-62
2023/12/04 08:09:02;;;;;;;18.63;7.73;;;;;;;-1.46;86.51;101479.19;4990299;28;20469;-61
2023/12/04 08:11:28;;;;;;;20.73;9.27;;;;;;;-1.41;86.14;101475.38;4990797;28;20478;-60
2023/12/04 08:13:53;;;;;;;19.87;7.60;;;;;;;-1.39;86.28;101476.44;4991027;28;20113;-60
2023/12/04 08:16:20;;;;;;;21.73;8.60;;;;;;;-1.31;86.00;101490.16;4991100;28;20066;-61
2023/12/04 08:18:45;;;;;;;22.67;8.00;;;;;;;-1.26;85.90;101478.56;4990174;28;20520;-59
2023/12/04 08:21:11;;;;;;;23.93;8.70;;;;;;;-1.19;85.68;101480.09;4990091;28;20073;-61
2023/12/04 08:23:37;;;;;;;22.60;8.48;;;;;;;-1.24;85.83;101473.53;4990668;28;20583;-60
2023/12/04 08:26:02;;;;;;;19.80;7.90;;;;;;;-1.23;85.53;101475.38;4990539;28;20390;-60
2023/12/04 08:28:27;;;;;;;20.08;7.75;;;;;;;-1.14;85.32;101478.88;4989786;28;20494;-60
2023/12/04 08:30:53;;;;;;;18.53;6.77;;;;;;;-1.09;85.33;101469.88;4991904;28;20490;-60
2023/12/04 08:33:20;;;;;;;20.63;7.77;;;;;;;-1.01;85.00;101471.50;4994314;28;20105;-59
2023/12/04 08:35:47;;;;;;;20.73;7.53;;;;;;;-0.99;85.00;101470.88;4990711;28;20045;-60
2023/12/04 08:38:12;;;;;;;19.38;7.60;;;;;;;-0.89;84.94;101472.72;4991723;28;20517;-60
2023/12/04 08:40:38;;;;;;;21.93;8.17;;;;;;;-0.83;84.83;101464.59;4993788;28;20065;-61
2023/12/04 08:43:03;;;;;;;20.40;7.97;;;;;;;-0.74;84.59;101457.75;4993987;28;20065;-61
2023/12/04 08:45:29;;;;;;;16.35;6.55;;;;;;;-0.68;84.66;101461.81;4993974;28;20117;-60
2023/12/04 08:47:55;;;;;;;19.50;8.27;;;;;;;-0.58;84.46;101456.75;4994031;28;20043;-61
2023/12/04 08:50:20;;;;;;;22.35;8.30;;;;;;;-0.57;84.04;101450.78;4993027;28;20101;-61
2023/12/04 08:52:46;;;;;;;25.73;8.50;;;;;;;-0.55;84.00;101454.47;4993818;28;20116;-61
2023/12/04 08:55:11;;;;;;;23.47;7.87;;;;;;;-0.58;83.90;101461.94;4993775;28;20038;-62
2023/12/04 08:57:37;;;;;;;19.25;7.65;;;;;;;-0.54;84.13;101463.13;4993740;28;20030;-62
2023/12/04 09:00:03;;;;;;;19.50;7.60;;;;;;;-0.54;84.00;101463.13;4993591;28;20045;-61
2023/12/04 09:02:30;;;;;;;19.27;7.63;;;;;;;-0.51;84.10;101461.75;4993834;28;20045;-60
2023/12/04 09:04:55;;;;;;;24.27;8.65;;;;;;;-0.43;83.96;101462.47;4993810;28;20089;-61
2023/12/04 09:09:43;;;;;;;19.33;7.60;;;;;;;-0.29;83.66;101474.16;5008779;28;20364;-62
2023/12/04 09:12:09;;;;;;;21.13;7.80;;;;;;;-0.22;83.41;101468.78;5024015;28;20382;-62
2023/12/04 09:14:35;;;;;;;21.13;7.80;;;;;;;-0.19;83.46;101469.06;5065337;28;20295;-62
2023/12/04 09:17:00;;;;;;;21.07;9.07;;;;;;;-0.12;83.16;101471.50;5108424;28;20115;-62
2023/12/04 09:19:25;;;;;;;21.13;7.60;;;;;;;-0.07;83.61;101467.66;5107395;28;20122;-59
2023/12/04 09:21:51;;;;;;;20.80;7.87;;;;;;;-0.06;82.89;101464.28;5107787;28;20491;-61
2023/12/04 09:24:16;;;;;;;20.70;7.90;;;;;;;-0.03;82.89;101464.56;5026198;28;20109;-62
2023/12/04 09:26:43;;;;;;;20.80;7.17;;;;;;;0.04;82.76;101463.47;5023980;28;20496;-63
2023/12/04 09:29:10;;;;;;;19.33;7.27;;;;;;;0.07;82.63;101468.94;5023188;28;20365;-60
2023/12/04 09:31:36;;;;;;;22.77;8.02;;;;;;;0.12;82.16;101468.59;5024036;28;20042;-59
2023/12/04 09:34:01;;;;;;;22.63;8.73;;;;;;;0.14;81.97;101480.06;5023980;28;20037;-59
2023/12/04 09:36:26;;;;;;;21.97;9.97;;;;;;;0.22;81.95;101475.56;5023974;28;20473;-61
2023/12/04 09:38:52;;;;;;;25.20;10.60;;;;;;;0.27;82.05;101470.03;5023657;27;20300;-62
2023/12/04 09:41:18;;;;;;;21.27;8.97;;;;;;;0.30;81.62;101470.28;5103408;28;20089;-62
2023/12/04 09:43:44;;;;;;;20.70;8.43;;;;;;;0.30;82.00;101469.38;5107425;28;20110;-61
2023/12/04 09:46:11;;;;;;;22.03;7.27;;;;;;;0.32;82.07;101463.56;5107338;28;20074;-61
2023/12/04 09:48:37;;;;;;;24.58;9.63;;;;;;;0.37;82.09;101461.38;5095363;28;20406;-61
2023/12/04 09:51:03;;;;;;;21.15;8.18;;;;;;;0.39;81.98;101463.38;5023684;28;20049;-62
2023/12/04 09:53:30;;;;;;;19.53;7.57;;;;;;;0.48;81.79;101462.38;5016329;28;20050;-60
2023/12/04 09:55:59;;;;;;;24.53;9.23;;;;;;;0.50;81.51;101459.13;4984036;28;20317;-61
2023/12/04 09:58:27;;;;;;;19.50;8.32;;;;;;;0.53;81.18;101461.13;4983574;28;20694;-61
2023/12/04 10:00:54;;;;;;;25.25;9.45;;;;;;;0.50;80.84;101456.53;4999302;28;20080;-61
2023/12/04 10:03:20;;;;;;;20.73;8.32;;;;;;;0.56;81.17;101458.78;5003474;28;20461;-61
2023/12/04 10:05:45;;;;;;;20.80;8.57;;;;;;;0.56;80.39;101457.09;5003580;28;20050;-61
2023/12/04 10:08:11;;;;;;;19.87;8.03;;;;;;;0.68;80.90;101446.91;5003183;28;20038;-64
2023/12/04 10:10:36;;;;;;;19.15;8.40;;;;;;;0.78;80.28;101445.28;5003010;28;20056;-60
2023/12/04 10:13:03;;;;;;;22.37;8.43;;;;;;;0.87;80.43;101440.00;5003343;28;20042;-62
2023/12/04 10:15:28;;;;;;;17.27;7.22;;;;;;;0.92;80.03;101441.31;5002404;28;20038;-61
2023/12/04 10:17:54;;;;;;;21.03;8.03;;;;;;;0.93;79.25;101437.97;5003772;28;20397;-61
2023/12/04 10:20:21;;;;;;;16.20;7.83;;;;;;;0.85;79.37;101428.53;4994145;28;20034;-61
2023/12/04 10:22:57;;;;;;;22.40;7.43;;;;;;;0.86;79.55;101427.75;4990186;28;20057;-60
2023/12/04 10:25:25;;;;;;;23.52;9.73;;;;;;;0.89;79.71;101422.81;4989043;28;20034;-65
2023/12/04 10:27:51;;;;;;;21.75;9.43;;;;;;;0.99;78.95;101417.66;4988988;28;20464;-63
2023/12/04 10:30:28;;;;;;;27.70;11.35;;;;;;;1.06;78.99;101401.84;4989028;28;20050;-61
2023/12/04 10:33:13;;;;;;;25.90;10.33;;;;;;;1.14;79.24;101406.03;4988837;28;20035;-61
2023/12/04 10:35:39;;;;;;;22.80;9.65;;;;;;;1.20;78.48;101400.47;4989887;28;20409;-62
2023/12/04 10:38:06;;;;;;;20.50;8.40;;;;;;;1.24;78.62;101399.94;5006031;28;20036;-63
2023/12/04 10:40:33;;;;;;;18.10;7.90;;;;;;;1.21;78.58;101397.09;4970512;28;20076;-62
2023/12/04 10:43:14;;;;;;;19.93;8.00;;;;;;;1.29;78.57;101394.38;4970595;28;20133;-60
2023/12/04 10:45:40;;;;;;;23.77;9.73;;;;;;;1.33;77.98;101384.25;4970503;28;20058;-63
2023/12/04 10:48:07;;;;;;;21.00;8.98;;;;;;;1.39;78.48;101380.47;4969751;28;20045;-62
2023/12/04 10:50:40;;;;;;;20.67;8.18;;;;;;;1.44;78.51;101376.56;5006277;28;20038;-62
2023/12/04 10:53:07;;;;;;;24.40;8.77;;;;;;;1.41;77.50;101371.13;5009523;28;20046;-62
2023/12/04 10:55:33;;;;;;;18.40;6.57;;;;;;;1.41;77.89;101362.38;5009392;28;20037;-62
2023/12/04 10:58:01;;;;;;;17.48;7.18;;;;;;;1.41;77.93;101362.38;5009093;28;20507;-60
2023/12/04 11:00:28;;;;;;;19.90;8.07;;;;;;;1.41;78.06;101358.09;5008812;28;20524;-62
2023/12/04 11:02:56;;;;;;;17.80;6.70;;;;;;;1.47;77.49;101352.50;5009305;28;20038;-60
2023/12/04 11:05:23;;;;;;;15.03;5.90;;;;;;;1.56;77.64;101356.81;5009498;28;20083;-61
2023/12/04 11:07:56;;;;;;;19.38;7.70;;;;;;;1.63;77.29;101347.81;5009115;28;20045;-62
2023/12/04 11:10:24;;;;;;;19.77;6.63;;;;;;;1.56;76.78;101350.69;5008783;28;20038;-61
2023/12/04 11:12:55;;;;;;;14.82;6.88;;;;;;;1.46;77.08;101343.78;5009158;28;20450;-63
2023/12/04 11:15:24;;;;;;;15.82;6.60;;;;;;;1.44;76.50;101342.72;5009145;28;20034;-63
2023/12/04 11:17:58;;;;;;;13.83;5.97;;;;;;;1.45;76.97;101336.75;5009039;28;20053;-63
2023/12/04 11:20:27;;;;;;;18.35;6.75;;;;;;;1.45;77.23;101338.44;5008130;28;20070;-61
2023/12/04 11:22:55;;;;;;;19.33;7.07;;;;;;;1.49;77.00;101337.91;4995203;28;20034;-62
2023/12/04 11:25:23;;;;;;;17.73;6.07;;;;;;;1.49;76.87;101332.72;5006990;28;20049;-62
2023/12/04 11:27:48;;;;;;;17.27;5.90;;;;;;;1.43;76.82;101340.03;5007507;28;20048;-62
2023/12/04 11:30:15;;;;;;;15.87;6.13;;;;;;;1.44;77.19;101336.63;5008612;28;20030;-63